Terminal Aerodrome Forecast
Issued by NWS

Home | Current Version | Previous Version | Text Only | Print | Product List | Glossary On
Versions: 1 2 3 4 5 6 7 8 9 10 11 12 13 14 15 16
000
FTUS41 KPHI 211700
TAFMIV
TAF
KMIV 211738Z 2118/2218 15004KT P6SM BKN035
     FM212200 14003KT P6SM SCT040
     FM220100 12003KT P6SM BKN040
      TEMPO 2201/2204 5SM SHRA BR BKN025
     FM220800 00000KT 4SM BR BKN050
     FM221200 07003KT P6SM BKN050=

USA.gov is the U.S. government's official web portal to all federal, state and local government web resources and services.